Time,TemperatureF,DewpointF,PressureIn,WindDirection,WindDirectionDegrees,WindSpeedMPH,WindSpeedGustMPH,Humidity,HourlyPrecipIn,Conditions,Clouds,dailyrainin,SolarRadiationWatts/m^2,SoftwareType,DateUTC
2013-05-30 00:01:00,52.8,51.1,29.76,South,178,0.0,1.0,94,0.00,,,0.00,0,WeatherCatV1.20B467,2013-05-29 23:01:00,
2013-05-30 00:06:00,52.7,51.0,29.75,NNE,25,1.0,1.0,94,0.00,,,0.00,0,WeatherCatV1.20B467,2013-05-29 23:06:00,
2013-05-30 00:11:00,52.7,51.0,29.75,NW,319,0.0,2.0,94,0.00,,,0.00,0,WeatherCatV1.20B467,2013-05-29 23:11:00,
2013-05-30 00:16:00,52.6,50.9,29.75,WNW,300,2.0,2.0,94,0.00,,,0.00,0,WeatherCatV1.20B467,2013-05-29 23:16:00,
2013-05-30 00:21:00,52.6,50.9,29.75,NW,323,0.0,1.0,94,0.00,,,0.00,0,WeatherCatV1.20B467,2013-05-29 23:21:00,
2013-05-30 00:26:00,52.5,50.8,29.75,NW,319,0.0,3.0,94,0.00,,,0.00,0,WeatherCatV1.20B467,2013-05-29 23:26:00,
2013-05-30 00:31:00,52.5,50.8,29.75,NW,325,0.0,2.0,94,0.00,,,0.00,0,WeatherCatV1.20B467,2013-05-29 23:31:00,
2013-05-30 00:36:00,52.5,51.1,29.76,NW,325,0.0,3.0,95,0.00,,,0.00,0,WeatherCatV1.20B467,2013-05-29 23:36:00,
2013-05-30 00:41:00,52.5,51.1,29.76,NW,326,0.0,1.0,95,0.00,,,0.00,0,WeatherCatV1.20B467,2013-05-29 23:41:00,
2013-05-30 00:46:00,52.5,51.1,29.76,NW,320,0.0,0.0,95,0.00,,,0.00,0,WeatherCatV1.20B467,2013-05-29 23:46:00,
2013-05-30 00:51:00,52.5,51.1,29.75,NW,320,0.0,1.0,95,0.00,,,0.00,0,WeatherCatV1.20B467,2013-05-29 23:51:00,
2013-05-30 00:56:00,52.5,51.1,29.75,NE,48,0.0,2.0,95,0.00,,,0.00,0,WeatherCatV1.20B467,2013-05-29 23:56:00,
2013-05-30 01:01:00,52.5,51.1,29.75,ESE,113,0.0,1.0,95,0.00,,,0.00,0,WeatherCatV1.20B467,2013-05-30 00:01:00,
2013-05-30 01:06:00,52.5,51.1,29.75,NNW,336,0.0,2.0,95,0.00,,,0.00,0,WeatherCatV1.20B467,2013-05-30 00:06:00,
2013-05-30 01:11:00,52.5,51.1,29.75,North,355,0.0,0.0,95,0.00,,,0.00,0,WeatherCatV1.20B467,2013-05-30 00:11:00,
2013-05-30 01:16:00,52.5,51.1,29.75,North,355,0.0,0.0,95,0.00,,,0.00,0,WeatherCatV1.20B467,2013-05-30 00:16:00,
2013-05-30 01:21:00,52.5,51.1,29.75,ESE,123,0.0,3.0,95,0.00,,,0.00,0,WeatherCatV1.20B467,2013-05-30 00:21:00,
2013-05-30 01:26:00,52.6,51.2,29.75,NW,320,0.0,1.0,95,0.00,,,0.00,0,WeatherCatV1.20B467,2013-05-30 00:26:00,
2013-05-30 01:31:00,52.6,51.2,29.75,NNW,340,0.0,2.0,95,0.00,,,0.00,0,WeatherCatV1.20B467,2013-05-30 00:31:00,
2013-05-30 01:36:00,52.6,51.2,29.75,NNW,340,0.0,1.0,95,0.00,,,0.00,0,WeatherCatV1.20B467,2013-05-30 00:36:00,
2013-05-30 01:37:00,52.6,51.2,29.75,NNE,30,0.0,1.0,95,0.00,,,0.00,0,WeatherCatV1.20B467,2013-05-30 00:37:00,
2013-05-30 01:42:00,52.6,51.2,29.75,NW,315,0.0,3.0,95,0.00,,,0.00,0,WeatherCatV1.20B467,2013-05-30 00:42:00,
2013-05-30 01:47:00,52.7,51.3,29.75,NNW,335,4.0,4.0,95,0.00,,,0.00,0,WeatherCatV1.20B467,2013-05-30 00:47:00,
2013-05-30 01:52:00,52.6,51.2,29.75,NNW,342,0.0,1.0,95,0.00,,,0.00,0,WeatherCatV1.20B467,2013-05-30 00:52:00,
2013-05-30 01:57:00,52.6,51.2,29.75,NNW,342,0.0,0.0,95,0.00,,,0.00,0,WeatherCatV1.20B467,2013-05-30 00:57:00,
2013-05-30 02:02:00,52.6,51.2,29.75,WNW,294,0.0,2.0,95,0.00,,,0.00,0,WeatherCatV1.20B467,2013-05-30 01:02:00,
2013-05-30 02:07:00,52.4,51.3,29.75,SSE,153,0.0,1.0,96,0.00,,,0.00,0,WeatherCatV1.20B467,2013-05-30 01:07:00,
2013-05-30 02:12:00,52.3,51.2,29.75,NW,317,0.0,3.0,96,0.00,,,0.00,0,WeatherCatV1.20B467,2013-05-30 01:12:00,
2013-05-30 02:17:00,52.3,51.2,29.75,NW,319,0.0,1.0,96,0.00,,,0.00,0,WeatherCatV1.20B467,2013-05-30 01:17:00,
2013-05-30 02:22:00,52.2,51.1,29.75,NNW,332,0.0,2.0,96,0.00,,,0.00,0,WeatherCatV1.20B467,2013-05-30 01:22:00,
2013-05-30 02:27:00,52.2,51.1,29.75,NW,317,1.0,2.0,96,0.00,,,0.00,0,WeatherCatV1.20B467,2013-05-30 01:27:00,
2013-05-30 02:32:00,52.2,51.1,29.75,NW,324,0.0,1.0,96,0.00,,,0.00,0,WeatherCatV1.20B467,2013-05-30 01:32:00,
2013-05-30 02:37:00,52.2,51.1,29.75,NW,324,0.0,2.0,96,0.00,,,0.00,0,WeatherCatV1.20B467,2013-05-30 01:37:00,
2013-05-30 02:42:00,52.2,51.1,29.75,NW,326,0.0,1.0,96,0.00,,,0.00,0,WeatherCatV1.20B467,2013-05-30 01:42:00,
2013-05-30 02:47:00,52.2,51.1,29.75,NNE,26,0.0,0.0,96,0.00,,,0.00,0,WeatherCatV1.20B467,2013-05-30 01:47:00,
2013-05-30 02:52:00,52.1,51.3,29.75,NW,319,0.0,1.0,97,0.00,,,0.00,0,WeatherCatV1.20B467,2013-05-30 01:52:00,
2013-05-30 02:57:00,52.2,51.4,29.75,NNW,327,5.0,5.0,97,0.00,,,0.00,0,WeatherCatV1.20B467,2013-05-30 01:57:00,
2013-05-30 03:02:00,52.0,51.2,29.75,NE,51,0.0,1.0,97,0.00,,,0.00,0,WeatherCatV1.20B467,2013-05-30 02:02:00,
2013-05-30 03:07:00,52.0,51.2,29.75,NNW,338,1.0,1.0,97,0.00,,,0.01,0,WeatherCatV1.20B467,2013-05-30 02:07:00,
2013-05-30 03:12:00,52.0,51.2,29.75,WSW,242,0.0,1.0,97,0.00,,,0.01,0,WeatherCatV1.20B467,2013-05-30 02:12:00,
2013-05-30 03:17:00,51.9,51.1,29.75,WNW,297,0.0,2.0,97,0.00,,,0.01,0,WeatherCatV1.20B467,2013-05-30 02:17:00,
2013-05-30 03:22:00,51.9,51.1,29.75,WNW,297,0.0,1.0,97,0.04,,,0.02,0,WeatherCatV1.20B467,2013-05-30 02:22:00,
2013-05-30 03:27:00,51.9,51.1,29.75,WNW,297,0.0,0.0,97,0.04,,,0.02,0,WeatherCatV1.20B467,2013-05-30 02:27:00,
2013-05-30 03:32:00,51.9,51.1,29.75,NNW,339,0.0,1.0,97,0.05,,,0.02,0,WeatherCatV1.20B467,2013-05-30 02:32:00,
2013-05-30 03:37:00,51.9,51.1,29.75,West,279,0.0,3.0,97,0.05,,,0.02,0,WeatherCatV1.20B467,2013-05-30 02:37:00,
2013-05-30 03:42:00,51.8,51.0,29.75,NNE,13,0.0,0.0,97,0.05,,,0.03,0,WeatherCatV1.20B467,2013-05-30 02:42:00,
2013-05-30 03:47:00,51.8,51.0,29.75,NW,325,0.0,1.0,97,0.05,,,0.03,0,WeatherCatV1.20B467,2013-05-30 02:47:00,
2013-05-30 03:52:00,51.7,50.9,29.75,NNW,330,0.0,0.0,97,0.05,,,0.04,0,WeatherCatV1.20B467,2013-05-30 02:52:00,
2013-05-30 03:57:00,51.7,50.9,29.75,NNW,329,0.0,1.0,97,0.05,,,0.04,0,WeatherCatV1.20B467,2013-05-30 02:57:00,
2013-05-30 04:02:00,51.7,50.9,29.75,NNW,329,0.0,0.0,97,0.04,,,0.05,0,WeatherCatV1.20B467,2013-05-30 03:02:00,
2013-05-30 04:07:00,51.6,50.8,29.75,North,355,0.0,2.0,97,0.04,,,0.05,0,WeatherCatV1.20B467,2013-05-30 03:07:00,
2013-05-30 04:12:00,51.6,50.8,29.75,NW,323,1.0,4.0,97,0.04,,,0.05,0,WeatherCatV1.20B467,2013-05-30 03:12:00,
2013-05-30 04:17:00,51.6,50.8,29.75,NNW,327,0.0,2.0,97,0.04,,,0.05,0,WeatherCatV1.20B467,2013-05-30 03:17:00,
2013-05-30 04:22:00,51.5,50.7,29.75,NNW,327,0.0,0.0,97,0.04,,,0.05,0,WeatherCatV1.20B467,2013-05-30 03:22:00,
2013-05-30 04:27:00,51.5,50.7,29.75,North,350,0.0,1.0,97,0.03,,,0.06,0,WeatherCatV1.20B467,2013-05-30 03:27:00,
2013-05-30 04:32:00,51.5,50.7,29.75,North,350,1.0,2.0,97,0.03,,,0.06,0,WeatherCatV1.20B467,2013-05-30 03:32:00,
2013-05-30 04:37:00,51.4,50.6,29.75,NNW,332,0.0,1.0,97,0.03,,,0.06,0,WeatherCatV1.20B467,2013-05-30 03:37:00,
2013-05-30 04:42:00,51.3,50.5,29.75,NNW,339,1.0,1.0,97,0.03,,,0.06,0,WeatherCatV1.20B467,2013-05-30 03:42:00,
2013-05-30 04:47:00,51.3,50.5,29.75,NNW,338,0.0,2.0,97,0.00,,,0.07,0,WeatherCatV1.20B467,2013-05-30 03:47:00,
2013-05-30 04:52:00,51.3,50.5,29.75,North,351,0.0,2.0,97,0.00,,,0.07,0,WeatherCatV1.20B467,2013-05-30 03:52:00,
2013-05-30 04:57:00,51.3,50.5,29.74,NW,324,0.0,2.0,97,0.00,,,0.07,0,WeatherCatV1.20B467,2013-05-30 03:57:00,
2013-05-30 05:01:00,51.2,50.4,29.74,NW,324,0.0,0.0,97,0.00,,,0.07,0,WeatherCatV1.20B467,2013-05-30 04:01:00,
2013-05-30 05:06:00,51.2,50.4,29.74,NNW,333,0.0,0.0,97,0.03,,,0.08,0,WeatherCatV1.20B467,2013-05-30 04:06:00,
2013-05-30 05:11:00,51.2,50.4,29.74,NNW,333,1.0,1.0,97,0.03,,,0.08,0,WeatherCatV1.20B467,2013-05-30 04:11:00,
2013-05-30 05:16:00,51.1,50.3,29.74,NNW,333,0.0,1.0,97,0.03,,,0.09,0,WeatherCatV1.20B467,2013-05-30 04:16:00,
2013-05-30 05:21:00,51.1,50.3,29.74,NNW,333,0.0,1.0,97,0.03,,,0.09,7,WeatherCatV1.20B467,2013-05-30 04:21:00,
2013-05-30 05:26:00,51.1,50.3,29.74,NNW,333,0.0,1.0,97,0.05,,,0.09,5,WeatherCatV1.20B467,2013-05-30 04:26:00,
2013-05-30 05:31:00,51.1,50.3,29.74,NNW,333,1.0,1.0,97,0.05,,,0.09,5,WeatherCatV1.20B467,2013-05-30 04:31:00,
2013-05-30 05:36:00,51.1,50.3,29.74,NNW,333,0.0,1.0,97,0.04,,,0.09,0,WeatherCatV1.20B467,2013-05-30 04:36:00,
2013-05-30 05:41:00,51.1,50.3,29.74,NNW,333,1.0,1.0,97,0.03,,,0.09,5,WeatherCatV1.20B467,2013-05-30 04:41:00,
2013-05-30 05:46:00,51.2,50.4,29.74,NNW,333,2.0,3.0,97,0.03,,,0.10,5,WeatherCatV1.20B467,2013-05-30 04:46:00,
2013-05-30 05:51:00,51.2,50.4,29.74,NNW,333,0.0,3.0,97,0.03,,,0.10,7,WeatherCatV1.20B467,2013-05-30 04:51:00,
2013-05-30 05:56:00,51.2,50.7,29.74,NNW,333,1.0,3.0,98,0.03,,,0.10,7,WeatherCatV1.20B467,2013-05-30 04:56:00,
2013-05-30 06:01:00,51.2,50.7,29.74,NNW,333,0.0,1.0,98,0.03,,,0.11,9,WeatherCatV1.20B467,2013-05-30 05:01:00,
2013-05-30 06:06:00,51.1,50.6,29.74,NW,311,0.0,1.0,98,0.03,,,0.11,14,WeatherCatV1.20B467,2013-05-30 05:06:00,
2013-05-30 06:11:00,51.1,50.6,29.74,NW,311,0.0,1.0,98,0.03,,,0.11,12,WeatherCatV1.20B467,2013-05-30 05:11:00,
2013-05-30 06:16:00,51.1,50.6,29.75,NW,311,0.0,1.0,98,0.00,,,0.11,11,WeatherCatV1.20B467,2013-05-30 05:16:00,
2013-05-30 06:21:00,51.1,50.6,29.74,NW,311,0.0,3.0,98,0.00,,,0.12,12,WeatherCatV1.20B467,2013-05-30 05:21:00,
2013-05-30 06:26:00,51.2,50.7,29.74,NW,309,0.0,2.0,98,0.00,,,0.12,16,WeatherCatV1.20B467,2013-05-30 05:26:00,
2013-05-30 06:31:00,51.2,50.7,29.75,NW,315,2.0,3.0,98,0.00,,,0.12,19,WeatherCatV1.20B467,2013-05-30 05:31:00,
2013-05-30 06:36:00,51.3,50.8,29.75,NW,317,0.0,1.0,98,0.00,,,0.12,28,WeatherCatV1.20B467,2013-05-30 05:36:00,
2013-05-30 06:41:00,51.4,50.9,29.75,SW,228,1.0,1.0,98,0.00,,,0.13,53,WeatherCatV1.20B467,2013-05-30 05:41:00,
2013-05-30 06:46:00,51.5,51.0,29.75,NW,320,0.0,3.0,98,0.00,,,0.13,49,WeatherCatV1.20B467,2013-05-30 05:46:00,
2013-05-30 06:51:00,51.6,51.1,29.75,WNW,291,2.0,2.0,98,0.00,,,0.13,88,WeatherCatV1.20B467,2013-05-30 05:51:00,
2013-05-30 06:56:00,51.7,51.2,29.75,South,169,0.0,2.0,98,0.00,,,0.13,83,WeatherCatV1.20B467,2013-05-30 05:56:00,
2013-05-30 07:01:00,51.6,51.1,29.75,North,350,0.0,0.0,98,0.00,,,0.13,95,WeatherCatV1.20B467,2013-05-30 06:01:00,
2013-05-30 07:06:00,51.7,51.2,29.75,WNW,293,0.0,5.0,98,0.00,,,0.13,91,WeatherCatV1.20B467,2013-05-30 06:06:00,
2013-05-30 07:11:00,51.6,51.1,29.75,NW,308,0.0,6.0,98,0.00,,,0.13,102,WeatherCatV1.20B467,2013-05-30 06:11:00,
2013-05-30 07:16:00,51.5,51.0,29.75,WSW,255,0.0,1.0,98,0.00,,,0.13,63,WeatherCatV1.20B467,2013-05-30 06:16:00,
2013-05-30 07:21:00,51.5,50.7,29.75,West,276,0.0,4.0,97,0.00,,,0.13,67,WeatherCatV1.20B467,2013-05-30 06:21:00,
2013-05-30 07:26:00,51.5,51.0,29.75,ESE,115,2.0,4.0,98,0.00,,,0.13,139,WeatherCatV1.20B467,2013-05-30 06:26:00,
2013-05-30 07:31:00,51.5,50.7,29.76,NW,323,0.0,1.0,97,0.00,,,0.13,44,WeatherCatV1.20B467,2013-05-30 06:31:00,
2013-05-30 07:36:00,51.5,51.0,29.76,West,279,0.0,2.0,98,0.00,,,0.13,95,WeatherCatV1.20B467,2013-05-30 06:36:00,
2013-05-30 07:41:00,51.5,50.7,29.76,SW,227,0.0,4.0,97,0.00,,,0.13,74,WeatherCatV1.20B467,2013-05-30 06:41:00,
2013-05-30 07:46:00,51.5,50.7,29.76,West,275,0.0,2.0,97,0.00,,,0.13,60,WeatherCatV1.20B467,2013-05-30 06:46:00,
2013-05-30 07:51:00,51.5,50.7,29.76,SE,128,1.0,2.0,97,0.00,,,0.13,63,WeatherCatV1.20B467,2013-05-30 06:51:00,
2013-05-30 07:56:00,51.4,50.6,29.77,NW,325,0.0,2.0,97,0.00,,,0.13,86,WeatherCatV1.20B467,2013-05-30 06:56:00,
2013-05-30 08:01:00,51.3,50.5,29.77,North,355,0.0,2.0,97,0.00,,,0.13,54,WeatherCatV1.20B467,2013-05-30 07:01:00,
2013-05-30 08:06:00,51.3,50.5,29.77,SSE,161,0.0,3.0,97,0.00,,,0.13,53,WeatherCatV1.20B467,2013-05-30 07:06:00,
2013-05-30 08:11:00,51.3,50.5,29.77,SE,138,1.0,3.0,97,0.00,,,0.13,65,WeatherCatV1.20B467,2013-05-30 07:11:00,
2013-05-30 08:16:00,51.4,50.6,29.77,NW,325,0.0,2.0,97,0.00,,,0.13,76,WeatherCatV1.20B467,2013-05-30 07:16:00,
2013-05-30 08:21:00,51.5,50.7,29.77,West,278,1.0,2.0,97,0.00,,,0.13,109,WeatherCatV1.20B467,2013-05-30 07:21:00,
2013-05-30 08:26:00,51.5,50.7,29.77,NNW,341,0.0,1.0,97,0.00,,,0.13,162,WeatherCatV1.20B467,2013-05-30 07:26:00,
2013-05-30 08:31:00,51.6,50.8,29.77,East,93,0.0,1.0,97,0.00,,,0.13,90,WeatherCatV1.20B467,2013-05-30 07:31:00,
2013-05-30 08:35:00,51.6,50.8,29.78,ENE,72,0.0,1.0,97,0.00,,,0.00,60,WeatherCatV1.20B467,2013-05-30 07:35:00,
2013-05-30 08:36:00,51.6,50.8,29.78,South,175,0.0,2.0,97,0.00,,,0.13,79,WeatherCatV1.20B467,2013-05-30 07:36:00,
2013-05-30 08:40:00,51.6,50.8,29.78,ENE,69,0.0,2.0,97,0.00,,,0.00,77,WeatherCatV1.20B467,2013-05-30 07:40:00,
2013-05-30 08:45:00,51.6,50.8,29.78,ENE,69,0.0,2.0,97,0.00,,,0.00,77,WeatherCatV1.20B467,2013-05-30 07:45:00,
2013-05-30 08:50:00,51.6,51.0,29.77,NW,315,0.0,4.0,98,0.00,,,0.00,89,WeatherCatV1.20B467,2013-05-30 07:50:00,
2013-05-30 08:55:00,51.6,51.0,29.77,NW,315,0.0,4.0,98,0.00,,,0.00,89,WeatherCatV1.20B467,2013-05-30 07:55:00,
2013-05-30 09:00:00,51.6,51.0,29.77,NW,315,0.0,4.0,98,0.00,,,0.00,89,WeatherCatV1.20B467,2013-05-30 08:00:00,
2013-05-30 09:05:00,51.6,51.0,29.77,NW,315,0.0,4.0,98,0.00,,,0.00,89,WeatherCatV1.20B467,2013-05-30 08:05:00,
2013-05-30 09:10:00,51.6,51.0,29.77,NW,315,0.0,4.0,98,0.00,,,0.00,89,WeatherCatV1.20B467,2013-05-30 08:10:00,
2013-05-30 09:15:00,51.6,51.0,29.77,NW,315,0.0,4.0,98,0.00,,,0.00,89,WeatherCatV1.20B467,2013-05-30 08:15:00,
2013-05-30 09:20:00,51.5,50.7,29.79,NW,315,0.0,3.0,97,0.00,,,0.00,61,WeatherCatV1.20B467,2013-05-30 08:20:00,
2013-05-30 09:25:00,51.5,50.7,29.79,NW,315,0.0,3.0,97,0.00,,,0.00,61,WeatherCatV1.20B467,2013-05-30 08:25:00,
2013-05-30 09:30:00,51.5,50.7,29.79,NW,315,0.0,3.0,97,0.00,,,0.00,61,WeatherCatV1.20B467,2013-05-30 08:30:00,
2013-05-30 09:35:00,51.5,50.7,29.79,NW,315,0.0,3.0,97,0.00,,,0.00,61,WeatherCatV1.20B467,2013-05-30 08:35:00,
2013-05-30 09:40:00,51.5,50.7,29.79,NW,315,0.0,3.0,97,0.00,,,0.00,61,WeatherCatV1.20B467,2013-05-30 08:40:00,
2013-05-30 09:45:00,51.5,50.7,29.79,NW,315,0.0,3.0,97,0.00,,,0.00,61,WeatherCatV1.20B467,2013-05-30 08:45:00,
2013-05-30 09:50:00,51.5,50.7,29.79,NW,315,0.0,3.0,97,0.00,,,0.00,61,WeatherCatV1.20B467,2013-05-30 08:50:00,
2013-05-30 09:55:00,51.7,50.9,29.79,NW,315,0.0,5.0,97,0.00,,,0.00,70,WeatherCatV1.20B467,2013-05-30 08:55:00,
2013-05-30 10:00:00,51.7,50.9,29.79,NW,315,0.0,5.0,97,0.00,,,0.00,70,WeatherCatV1.20B467,2013-05-30 09:00:00,
2013-05-30 10:05:00,51.7,50.9,29.79,NW,315,0.0,5.0,97,0.00,,,0.00,70,WeatherCatV1.20B467,2013-05-30 09:05:00,
2013-05-30 10:10:00,51.7,50.9,29.79,NW,315,0.0,5.0,97,0.00,,,0.00,70,WeatherCatV1.20B467,2013-05-30 09:10:00,
2013-05-30 10:15:00,51.7,50.9,29.79,NW,315,0.0,5.0,97,0.00,,,0.00,70,WeatherCatV1.20B467,2013-05-30 09:15:00,
2013-05-30 10:20:00,51.7,50.9,29.79,NW,315,0.0,5.0,97,0.00,,,0.00,70,WeatherCatV1.20B467,2013-05-30 09:20:00,
2013-05-30 10:25:00,51.9,51.1,29.80,WNW,292,1.0,6.0,97,0.00,,,0.00,125,WeatherCatV1.20B467,2013-05-30 09:25:00,
2013-05-30 10:30:00,51.9,51.1,29.80,WNW,292,1.0,6.0,97,0.00,,,0.00,125,WeatherCatV1.20B467,2013-05-30 09:30:00,
2013-05-30 10:35:00,51.9,51.1,29.80,WNW,292,1.0,6.0,97,0.00,,,0.00,125,WeatherCatV1.20B467,2013-05-30 09:35:00,
2013-05-30 10:40:00,51.9,51.1,29.80,WNW,292,1.0,6.0,97,0.00,,,0.00,125,WeatherCatV1.20B467,2013-05-30 09:40:00,
2013-05-30 10:45:00,51.9,51.1,29.80,WNW,292,1.0,6.0,97,0.00,,,0.00,125,WeatherCatV1.20B467,2013-05-30 09:45:00,
2013-05-30 10:50:00,51.9,51.1,29.80,WNW,292,1.0,6.0,97,0.00,,,0.00,125,WeatherCatV1.20B467,2013-05-30 09:50:00,
2013-05-30 10:55:00,52.3,51.5,29.81,NNW,338,0.0,4.0,97,0.00,,,0.00,155,WeatherCatV1.20B467,2013-05-30 09:55:00,
2013-05-30 11:00:00,52.3,51.5,29.81,NNW,338,0.0,4.0,97,0.00,,,0.00,155,WeatherCatV1.20B467,2013-05-30 10:00:00,
2013-05-30 11:05:00,52.3,51.5,29.81,NNW,338,0.0,4.0,97,0.00,,,0.00,155,WeatherCatV1.20B467,2013-05-30 10:05:00,
2013-05-30 11:10:00,52.3,51.5,29.81,NNW,338,0.0,4.0,97,0.00,,,0.00,155,WeatherCatV1.20B467,2013-05-30 10:10:00,
2013-05-30 11:15:00,52.3,51.5,29.81,NNW,338,0.0,4.0,97,0.00,,,0.00,155,WeatherCatV1.20B467,2013-05-30 10:15:00,
2013-05-30 11:20:00,52.3,51.5,29.81,NNW,338,0.0,4.0,97,0.00,,,0.00,155,WeatherCatV1.20B467,2013-05-30 10:20:00,
2013-05-30 11:25:00,53.2,52.1,29.81,NW,315,1.0,7.0,96,0.00,,,0.00,271,WeatherCatV1.20B467,2013-05-30 10:25:00,
2013-05-30 11:30:00,53.2,52.1,29.81,NW,315,1.0,7.0,96,0.00,,,0.00,271,WeatherCatV1.20B467,2013-05-30 10:30:00,
2013-05-30 11:35:00,53.2,52.1,29.81,NW,315,1.0,7.0,96,0.00,,,0.00,271,WeatherCatV1.20B467,2013-05-30 10:35:00,
2013-05-30 11:40:00,53.2,52.1,29.81,NW,315,1.0,7.0,96,0.00,,,0.00,271,WeatherCatV1.20B467,2013-05-30 10:40:00,
2013-05-30 11:45:00,53.2,52.1,29.81,NW,315,1.0,7.0,96,0.00,,,0.00,271,WeatherCatV1.20B467,2013-05-30 10:45:00,
2013-05-30 11:50:00,53.2,52.1,29.81,NW,315,1.0,7.0,96,0.00,,,0.00,271,WeatherCatV1.20B467,2013-05-30 10:50:00,
2013-05-30 11:55:00,54.6,53.2,29.82,South,180,1.0,9.0,95,0.00,,,0.00,341,WeatherCatV1.20B467,2013-05-30 10:55:00,
2013-05-30 12:00:00,54.6,53.2,29.82,South,180,1.0,9.0,95,0.00,,,0.00,341,WeatherCatV1.20B467,2013-05-30 11:00:00,
2013-05-30 12:05:00,54.6,53.2,29.82,South,180,1.0,9.0,95,0.00,,,0.00,341,WeatherCatV1.20B467,2013-05-30 11:05:00,
2013-05-30 12:10:00,54.6,53.2,29.82,South,180,1.0,9.0,95,0.00,,,0.00,341,WeatherCatV1.20B467,2013-05-30 11:10:00,
2013-05-30 12:15:00,54.6,53.2,29.82,South,180,1.0,9.0,95,0.00,,,0.00,341,WeatherCatV1.20B467,2013-05-30 11:15:00,
2013-05-30 12:20:00,55.1,52.8,29.83,NW,315,1.0,6.0,92,0.00,,,0.00,257,WeatherCatV1.20B467,2013-05-30 11:20:00,
2013-05-30 12:25:00,55.1,52.8,29.83,NW,315,1.0,6.0,92,0.00,,,0.00,257,WeatherCatV1.20B467,2013-05-30 11:25:00,
2013-05-30 12:30:00,55.1,52.8,29.83,NW,315,1.0,6.0,92,0.00,,,0.00,257,WeatherCatV1.20B467,2013-05-30 11:30:00,
2013-05-30 12:35:00,55.1,52.8,29.83,NW,315,1.0,6.0,92,0.00,,,0.00,257,WeatherCatV1.20B467,2013-05-30 11:35:00,
2013-05-30 12:40:00,55.1,52.8,29.83,NW,315,1.0,6.0,92,0.00,,,0.00,257,WeatherCatV1.20B467,2013-05-30 11:40:00,
2013-05-30 12:45:00,55.1,52.8,29.83,NW,315,1.0,6.0,92,0.00,,,0.00,257,WeatherCatV1.20B467,2013-05-30 11:45:00,
2013-05-30 12:50:00,55.7,52.8,29.83,NW,315,0.0,5.0,90,0.00,,,0.00,264,WeatherCatV1.20B467,2013-05-30 11:50:00,
2013-05-30 12:55:00,55.7,52.8,29.83,NW,315,0.0,5.0,90,0.00,,,0.00,264,WeatherCatV1.20B467,2013-05-30 11:55:00,
2013-05-30 13:00:00,55.7,52.8,29.83,NW,315,0.0,5.0,90,0.00,,,0.00,264,WeatherCatV1.20B467,2013-05-30 12:00:00,
2013-05-30 13:05:00,55.7,52.8,29.83,NW,315,0.0,5.0,90,0.00,,,0.00,264,WeatherCatV1.20B467,2013-05-30 12:05:00,
2013-05-30 13:10:00,55.7,52.8,29.83,NW,315,0.0,5.0,90,0.00,,,0.00,264,WeatherCatV1.20B467,2013-05-30 12:10:00,
2013-05-30 13:15:00,55.7,52.8,29.83,NW,315,0.0,5.0,90,0.00,,,0.00,264,WeatherCatV1.20B467,2013-05-30 12:15:00,
2013-05-30 13:20:00,55.7,52.8,29.83,NW,315,0.0,5.0,90,0.00,,,0.00,264,WeatherCatV1.20B467,2013-05-30 12:20:00,
2013-05-30 13:25:00,55.6,52.7,29.84,WNW,292,0.0,5.0,90,0.00,,,0.00,227,WeatherCatV1.20B467,2013-05-30 12:25:00,
2013-05-30 13:30:00,55.6,52.7,29.84,WNW,292,0.0,5.0,90,0.00,,,0.00,227,WeatherCatV1.20B467,2013-05-30 12:30:00,
2013-05-30 13:35:00,55.6,52.7,29.84,WNW,292,0.0,5.0,90,0.00,,,0.00,227,WeatherCatV1.20B467,2013-05-30 12:35:00,
2013-05-30 13:40:00,55.6,52.7,29.84,WNW,292,0.0,5.0,90,0.00,,,0.00,227,WeatherCatV1.20B467,2013-05-30 12:40:00,
2013-05-30 13:45:00,55.6,52.7,29.84,WNW,292,0.0,5.0,90,0.00,,,0.00,227,WeatherCatV1.20B467,2013-05-30 12:45:00,
2013-05-30 13:50:00,55.6,52.7,29.84,WNW,292,0.0,5.0,90,0.00,,,0.00,227,WeatherCatV1.20B467,2013-05-30 12:50:00,
2013-05-30 13:55:00,57.9,54.0,29.84,South,180,0.0,8.0,87,0.00,,,0.00,364,WeatherCatV1.20B467,2013-05-30 12:55:00,
2013-05-30 14:00:00,57.9,54.0,29.84,South,180,0.0,8.0,87,0.00,,,0.00,364,WeatherCatV1.20B467,2013-05-30 13:00:00,
2013-05-30 14:05:00,57.9,54.0,29.84,South,180,0.0,8.0,87,0.00,,,0.00,364,WeatherCatV1.20B467,2013-05-30 13:05:00,
2013-05-30 14:10:00,57.9,54.0,29.84,South,180,0.0,8.0,87,0.00,,,0.00,364,WeatherCatV1.20B467,2013-05-30 13:10:00,
2013-05-30 14:15:00,57.9,54.0,29.84,South,180,0.0,8.0,87,0.00,,,0.00,364,WeatherCatV1.20B467,2013-05-30 13:15:00,
2013-05-30 14:20:00,57.9,54.0,29.84,South,180,0.0,8.0,87,0.00,,,0.00,364,WeatherCatV1.20B467,2013-05-30 13:20:00,
2013-05-30 14:25:00,57.0,53.2,29.85,NW,315,1.0,5.0,87,0.00,,,0.00,220,WeatherCatV1.20B467,2013-05-30 13:25:00,
2013-05-30 14:30:00,57.0,53.2,29.85,NW,315,1.0,5.0,87,0.00,,,0.00,220,WeatherCatV1.20B467,2013-05-30 13:30:00,
2013-05-30 14:35:00,57.0,53.2,29.85,NW,315,1.0,5.0,87,0.00,,,0.00,220,WeatherCatV1.20B467,2013-05-30 13:35:00,
2013-05-30 14:40:00,57.0,53.2,29.85,NW,315,1.0,5.0,87,0.00,,,0.00,220,WeatherCatV1.20B467,2013-05-30 13:40:00,
2013-05-30 14:45:00,57.0,53.2,29.85,NW,315,1.0,5.0,87,0.00,,,0.00,220,WeatherCatV1.20B467,2013-05-30 13:45:00,
2013-05-30 14:50:00,57.0,53.2,29.85,NW,315,1.0,5.0,87,0.00,,,0.00,220,WeatherCatV1.20B467,2013-05-30 13:50:00,
2013-05-30 14:55:00,57.8,53.0,29.85,NW,315,0.0,7.0,84,0.00,,,0.00,319,WeatherCatV1.20B467,2013-05-30 13:55:00,
2013-05-30 15:00:00,57.8,53.0,29.85,NW,315,0.0,7.0,84,0.00,,,0.00,319,WeatherCatV1.20B467,2013-05-30 14:00:00,
2013-05-30 15:05:00,57.8,53.0,29.85,NW,315,0.0,7.0,84,0.00,,,0.00,319,WeatherCatV1.20B467,2013-05-30 14:05:00,
2013-05-30 15:10:00,57.8,53.0,29.85,NW,315,0.0,7.0,84,0.00,,,0.00,319,WeatherCatV1.20B467,2013-05-30 14:10:00,
2013-05-30 15:15:00,57.8,53.0,29.85,NW,315,0.0,7.0,84,0.00,,,0.00,319,WeatherCatV1.20B467,2013-05-30 14:15:00,
2013-05-30 15:20:00,57.8,53.0,29.85,NW,315,0.0,7.0,84,0.00,,,0.00,319,WeatherCatV1.20B467,2013-05-30 14:20:00,
2013-05-30 15:25:00,57.8,53.0,29.86,SE,135,1.0,4.0,84,0.00,,,0.00,334,WeatherCatV1.20B467,2013-05-30 14:25:00,
2013-05-30 15:30:00,57.8,53.0,29.86,SE,135,1.0,4.0,84,0.00,,,0.00,334,WeatherCatV1.20B467,2013-05-30 14:30:00,
2013-05-30 15:35:00,57.8,53.0,29.86,SE,135,1.0,4.0,84,0.00,,,0.00,334,WeatherCatV1.20B467,2013-05-30 14:35:00,
2013-05-30 15:40:00,57.8,53.0,29.86,SE,135,1.0,4.0,84,0.00,,,0.00,334,WeatherCatV1.20B467,2013-05-30 14:40:00,
2013-05-30 15:45:00,57.8,53.0,29.86,SE,135,1.0,4.0,84,0.00,,,0.00,334,WeatherCatV1.20B467,2013-05-30 14:45:00,
2013-05-30 15:50:00,57.3,53.5,29.86,NW,315,1.0,7.0,87,0.00,,,0.00,263,WeatherCatV1.20B467,2013-05-30 14:50:00,
2013-05-30 15:55:00,57.3,53.5,29.86,NW,315,1.0,7.0,87,0.00,,,0.00,263,WeatherCatV1.20B467,2013-05-30 14:55:00,
2013-05-30 16:00:00,57.3,53.5,29.86,NW,315,1.0,7.0,87,0.00,,,0.00,263,WeatherCatV1.20B467,2013-05-30 15:00:00,
2013-05-30 16:05:00,57.3,53.5,29.86,NW,315,1.0,7.0,87,0.00,,,0.00,263,WeatherCatV1.20B467,2013-05-30 15:05:00,
2013-05-30 16:10:00,57.3,53.5,29.86,NW,315,1.0,7.0,87,0.00,,,0.00,263,WeatherCatV1.20B467,2013-05-30 15:10:00,
2013-05-30 16:15:00,57.3,53.5,29.86,NW,315,1.0,7.0,87,0.00,,,0.00,263,WeatherCatV1.20B467,2013-05-30 15:15:00,
2013-05-30 16:20:00,57.3,53.5,29.86,NW,315,1.0,7.0,87,0.00,,,0.00,263,WeatherCatV1.20B467,2013-05-30 15:20:00,
2013-05-30 16:25:00,57.2,52.7,29.86,NW,315,1.0,8.0,85,0.00,,,0.00,270,WeatherCatV1.20B467,2013-05-30 15:25:00,
2013-05-30 16:30:00,57.2,52.7,29.86,NW,315,1.0,8.0,85,0.00,,,0.00,270,WeatherCatV1.20B467,2013-05-30 15:30:00,
2013-05-30 16:35:00,57.2,52.7,29.86,NW,315,1.0,8.0,85,0.00,,,0.00,270,WeatherCatV1.20B467,2013-05-30 15:35:00,
2013-05-30 16:40:00,57.2,52.7,29.86,NW,315,1.0,8.0,85,0.00,,,0.00,270,WeatherCatV1.20B467,2013-05-30 15:40:00,
2013-05-30 16:45:00,57.2,52.7,29.86,NW,315,1.0,8.0,85,0.00,,,0.00,270,WeatherCatV1.20B467,2013-05-30 15:45:00,
2013-05-30 16:50:00,57.2,52.7,29.86,NW,315,1.0,8.0,85,0.00,,,0.00,270,WeatherCatV1.20B467,2013-05-30 15:50:00,
2013-05-30 16:55:00,56.4,52.6,29.87,NW,315,0.0,4.0,87,0.00,,,0.00,88,WeatherCatV1.20B467,2013-05-30 15:55:00,
2013-05-30 17:00:00,56.4,52.6,29.87,NW,315,0.0,4.0,87,0.00,,,0.00,88,WeatherCatV1.20B467,2013-05-30 16:00:00,
2013-05-30 17:05:00,56.4,52.6,29.87,NW,315,0.0,4.0,87,0.00,,,0.00,88,WeatherCatV1.20B467,2013-05-30 16:05:00,
2013-05-30 17:10:00,56.4,52.6,29.87,NW,315,0.0,4.0,87,0.00,,,0.00,88,WeatherCatV1.20B467,2013-05-30 16:10:00,
2013-05-30 17:15:00,56.4,52.6,29.87,NW,315,0.0,4.0,87,0.00,,,0.00,88,WeatherCatV1.20B467,2013-05-30 16:15:00,
2013-05-30 17:20:00,56.4,52.6,29.87,NW,315,0.0,4.0,87,0.00,,,0.00,88,WeatherCatV1.20B467,2013-05-30 16:20:00,
2013-05-30 17:25:00,56.5,53.0,29.88,SSW,202,0.0,3.0,88,0.00,,,0.00,121,WeatherCatV1.20B467,2013-05-30 16:25:00,
2013-05-30 17:30:00,56.5,53.0,29.88,SSW,202,0.0,3.0,88,0.00,,,0.00,121,WeatherCatV1.20B467,2013-05-30 16:30:00,
2013-05-30 17:35:00,56.5,53.0,29.88,SSW,202,0.0,3.0,88,0.00,,,0.00,121,WeatherCatV1.20B467,2013-05-30 16:35:00,
2013-05-30 17:40:00,56.5,53.0,29.88,SSW,202,0.0,3.0,88,0.00,,,0.00,121,WeatherCatV1.20B467,2013-05-30 16:40:00,
2013-05-30 17:45:00,56.5,53.0,29.88,SSW,202,0.0,3.0,88,0.00,,,0.00,121,WeatherCatV1.20B467,2013-05-30 16:45:00,
2013-05-30 17:50:00,56.5,53.0,29.88,SSW,202,0.0,3.0,88,0.00,,,0.00,121,WeatherCatV1.20B467,2013-05-30 16:50:00,
2013-05-30 17:55:00,56.8,53.0,29.88,SE,135,0.0,4.0,87,0.00,,,0.00,161,WeatherCatV1.20B467,2013-05-30 16:55:00,
2013-05-30 18:00:00,56.8,53.0,29.88,SE,135,0.0,4.0,87,0.00,,,0.00,161,WeatherCatV1.20B467,2013-05-30 17:00:00,
2013-05-30 18:05:00,56.8,53.0,29.88,SE,135,0.0,4.0,87,0.00,,,0.00,161,WeatherCatV1.20B467,2013-05-30 17:05:00,
2013-05-30 18:10:00,56.8,53.0,29.88,SE,135,0.0,4.0,87,0.00,,,0.00,161,WeatherCatV1.20B467,2013-05-30 17:10:00,
2013-05-30 18:15:00,56.8,53.0,29.88,SE,135,0.0,4.0,87,0.00,,,0.00,161,WeatherCatV1.20B467,2013-05-30 17:15:00,
2013-05-30 18:20:00,56.8,53.0,29.88,SE,135,0.0,4.0,87,0.00,,,0.00,161,WeatherCatV1.20B467,2013-05-30 17:20:00,
2013-05-30 18:25:00,56.7,52.6,29.89,South,180,0.0,6.0,86,0.00,,,0.00,158,WeatherCatV1.20B467,2013-05-30 17:25:00,
2013-05-30 18:30:00,56.7,52.6,29.89,South,180,0.0,6.0,86,0.00,,,0.00,158,WeatherCatV1.20B467,2013-05-30 17:30:00,
2013-05-30 18:35:00,56.7,52.6,29.89,South,180,0.0,6.0,86,0.00,,,0.00,158,WeatherCatV1.20B467,2013-05-30 17:35:00,
2013-05-30 18:40:00,56.7,52.6,29.89,South,180,0.0,6.0,86,0.00,,,0.00,158,WeatherCatV1.20B467,2013-05-30 17:40:00,
2013-05-30 18:45:00,56.7,52.6,29.89,South,180,0.0,6.0,86,0.00,,,0.00,158,WeatherCatV1.20B467,2013-05-30 17:45:00,
2013-05-30 18:50:00,55.6,52.7,29.89,South,180,0.0,3.0,90,0.00,,,0.00,59,WeatherCatV1.20B467,2013-05-30 17:50:00,
2013-05-30 18:55:00,55.6,52.7,29.89,South,180,0.0,3.0,90,0.00,,,0.00,59,WeatherCatV1.20B467,2013-05-30 17:55:00,
2013-05-30 19:00:00,55.6,52.7,29.89,South,180,0.0,3.0,90,0.00,,,0.00,59,WeatherCatV1.20B467,2013-05-30 18:00:00,
2013-05-30 19:05:00,55.6,52.7,29.89,South,180,0.0,3.0,90,0.00,,,0.00,59,WeatherCatV1.20B467,2013-05-30 18:05:00,
2013-05-30 19:10:00,55.6,52.7,29.89,South,180,0.0,3.0,90,0.00,,,0.00,59,WeatherCatV1.20B467,2013-05-30 18:10:00,
2013-05-30 19:15:00,55.6,52.7,29.89,South,180,0.0,3.0,90,0.00,,,0.00,59,WeatherCatV1.20B467,2013-05-30 18:15:00,
2013-05-30 19:20:00,54.9,52.6,29.90,ESE,112,0.0,4.0,92,0.00,,,0.00,55,WeatherCatV1.20B467,2013-05-30 18:20:00,
2013-05-30 19:25:00,54.9,52.6,29.90,ESE,112,0.0,4.0,92,0.00,,,0.00,55,WeatherCatV1.20B467,2013-05-30 18:25:00,
2013-05-30 19:30:00,54.9,52.6,29.90,ESE,112,0.0,4.0,92,0.00,,,0.00,55,WeatherCatV1.20B467,2013-05-30 18:30:00,
2013-05-30 19:35:00,54.9,52.6,29.90,ESE,112,0.0,4.0,92,0.00,,,0.00,55,WeatherCatV1.20B467,2013-05-30 18:35:00,
2013-05-30 19:40:00,54.9,52.6,29.90,ESE,112,0.0,4.0,92,0.00,,,0.00,55,WeatherCatV1.20B467,2013-05-30 18:40:00,
2013-05-30 19:45:00,54.9,52.6,29.90,ESE,112,0.0,4.0,92,0.00,,,0.00,55,WeatherCatV1.20B467,2013-05-30 18:45:00,
2013-05-30 19:50:00,54.9,52.6,29.90,ESE,112,0.0,4.0,92,0.00,,,0.00,55,WeatherCatV1.20B467,2013-05-30 18:50:00,
2013-05-30 19:55:00,54.8,52.2,29.91,WNW,292,0.0,5.0,91,0.00,,,0.00,60,WeatherCatV1.20B467,2013-05-30 18:55:00,
2013-05-30 20:00:00,54.8,52.2,29.91,WNW,292,0.0,5.0,91,0.00,,,0.00,60,WeatherCatV1.20B467,2013-05-30 19:00:00,
2013-05-30 20:05:00,54.8,52.2,29.91,WNW,292,0.0,5.0,91,0.00,,,0.00,60,WeatherCatV1.20B467,2013-05-30 19:05:00,
2013-05-30 20:10:00,54.8,52.2,29.91,WNW,292,0.0,5.0,91,0.00,,,0.00,60,WeatherCatV1.20B467,2013-05-30 19:10:00,
2013-05-30 20:15:00,54.8,52.2,29.91,WNW,292,0.0,5.0,91,0.00,,,0.00,60,WeatherCatV1.20B467,2013-05-30 19:15:00,
2013-05-30 20:20:00,54.8,52.2,29.91,WNW,292,0.0,5.0,91,0.00,,,0.00,60,WeatherCatV1.20B467,2013-05-30 19:20:00,
2013-05-30 20:25:00,54.3,51.4,29.92,South,180,1.0,7.0,90,0.00,,,0.00,27,WeatherCatV1.20B467,2013-05-30 19:25:00,
2013-05-30 20:30:00,54.3,51.4,29.92,South,180,1.0,7.0,90,0.00,,,0.00,27,WeatherCatV1.20B467,2013-05-30 19:30:00,
2013-05-30 20:35:00,54.3,51.4,29.92,South,180,1.0,7.0,90,0.00,,,0.00,27,WeatherCatV1.20B467,2013-05-30 19:35:00,
2013-05-30 20:40:00,54.3,51.4,29.92,South,180,1.0,7.0,90,0.00,,,0.00,27,WeatherCatV1.20B467,2013-05-30 19:40:00,
2013-05-30 20:45:00,54.3,51.4,29.92,South,180,1.0,7.0,90,0.00,,,0.00,27,WeatherCatV1.20B467,2013-05-30 19:45:00,
2013-05-30 20:59:00,53.9,51.3,29.94,SW,232,0.0,0.0,91,0.00,,,0.00,5,WeatherCatV1.20B467,2013-05-30 19:59:00,
2013-05-30 21:04:00,53.8,51.2,29.95,NW,321,0.0,1.0,91,0.00,,,0.13,0,WeatherCatV1.20B467,2013-05-30 20:04:00,
2013-05-30 21:09:00,53.7,51.1,29.95,SSE,153,0.0,5.0,91,0.00,,,0.13,0,WeatherCatV1.20B467,2013-05-30 20:09:00,
2013-05-30 21:14:00,53.7,51.1,29.95,SSE,148,0.0,1.0,91,0.00,,,0.13,0,WeatherCatV1.20B467,2013-05-30 20:14:00,
2013-05-30 21:19:00,53.7,51.1,29.95,SE,133,0.0,5.0,91,0.00,,,0.13,0,WeatherCatV1.20B467,2013-05-30 20:19:00,
2013-05-30 21:24:00,53.6,51.0,29.96,SE,124,0.0,1.0,91,0.00,,,0.13,0,WeatherCatV1.20B467,2013-05-30 20:24:00,
2013-05-30 21:29:00,53.5,50.9,29.96,West,261,1.0,1.0,91,0.00,,,0.13,0,WeatherCatV1.20B467,2013-05-30 20:29:00,
2013-05-30 21:34:00,53.4,50.8,29.96,South,186,0.0,1.0,91,0.00,,,0.13,0,WeatherCatV1.20B467,2013-05-30 20:34:00,
2013-05-30 21:39:00,53.4,50.8,29.97,SSE,161,0.0,1.0,91,0.00,,,0.13,0,WeatherCatV1.20B467,2013-05-30 20:39:00,
2013-05-30 21:44:00,53.4,50.8,29.97,SSW,194,0.0,1.0,91,0.00,,,0.13,0,WeatherCatV1.20B467,2013-05-30 20:44:00,
2013-05-30 21:49:00,53.3,50.7,29.97,SSE,167,1.0,1.0,91,0.00,,,0.13,0,WeatherCatV1.20B467,2013-05-30 20:49:00,
2013-05-30 21:54:00,53.3,50.7,29.97,ESE,103,1.0,1.0,91,0.00,,,0.13,0,WeatherCatV1.20B467,2013-05-30 20:54:00,
2013-05-30 21:59:00,53.2,50.6,29.97,SSE,162,0.0,2.0,91,0.00,,,0.13,0,WeatherCatV1.20B467,2013-05-30 20:59:00,
2013-05-30 22:04:00,53.2,50.6,29.97,SE,136,0.0,0.0,91,0.00,,,0.13,0,WeatherCatV1.20B467,2013-05-30 21:04:00,
2013-05-30 22:09:00,53.2,50.6,29.98,SSW,199,0.0,1.0,91,0.00,,,0.13,0,WeatherCatV1.20B467,2013-05-30 21:09:00,
2013-05-30 22:14:00,53.1,50.5,29.98,ESE,103,0.0,1.0,91,0.00,,,0.13,0,WeatherCatV1.20B467,2013-05-30 21:14:00,
2013-05-30 22:19:00,53.1,50.5,29.98,NW,320,1.0,1.0,91,0.00,,,0.13,0,WeatherCatV1.20B467,2013-05-30 21:19:00,
2013-05-30 22:24:00,53.1,50.5,29.98,NW,320,0.0,1.0,91,0.00,,,0.13,0,WeatherCatV1.20B467,2013-05-30 21:24:00,
2013-05-30 22:29:00,53.1,50.5,29.98,NW,320,0.0,1.0,91,0.00,,,0.13,0,WeatherCatV1.20B467,2013-05-30 21:29:00,
2013-05-30 22:34:00,53.0,50.4,29.98,NW,320,0.0,1.0,91,0.00,,,0.13,0,WeatherCatV1.20B467,2013-05-30 21:34:00,
2013-05-30 22:39:00,53.0,50.4,29.98,NW,320,0.0,0.0,91,0.00,,,0.13,0,WeatherCatV1.20B467,2013-05-30 21:39:00,
2013-05-30 22:45:00,53.0,50.1,29.99,NW,320,0.0,1.0,90,0.00,,,0.13,0,WeatherCatV1.20B467,2013-05-30 21:45:00,
2013-05-30 22:50:00,53.0,50.1,29.99,NW,304,0.0,0.0,90,0.00,,,0.13,0,WeatherCatV1.20B467,2013-05-30 21:50:00,
2013-05-30 22:55:00,53.0,50.4,29.99,SE,139,0.0,2.0,91,0.00,,,0.13,0,WeatherCatV1.20B467,2013-05-30 21:55:00,
2013-05-30 23:00:00,52.9,50.3,29.99,SE,139,0.0,3.0,91,0.00,,,0.13,0,WeatherCatV1.20B467,2013-05-30 22:00:00,
2013-05-30 23:05:00,52.9,50.3,29.99,SE,142,0.0,1.0,91,0.00,,,0.13,0,WeatherCatV1.20B467,2013-05-30 22:05:00,
2013-05-30 23:10:00,52.9,50.3,29.99,SSE,150,3.0,3.0,91,0.00,,,0.13,0,WeatherCatV1.20B467,2013-05-30 22:10:00,
2013-05-30 23:15:00,52.9,50.3,29.99,ESE,103,0.0,3.0,91,0.00,,,0.13,0,WeatherCatV1.20B467,2013-05-30 22:15:00,
2013-05-30 23:20:00,52.9,50.3,29.99,ESE,103,0.0,1.0,91,0.00,,,0.13,0,WeatherCatV1.20B467,2013-05-30 22:20:00,
2013-05-30 23:25:00,52.8,50.2,29.99,East,83,0.0,0.0,91,0.00,,,0.13,0,WeatherCatV1.20B467,2013-05-30 22:25:00,
2013-05-30 23:30:00,52.8,50.2,29.99,NE,46,0.0,1.0,91,0.00,,,0.13,0,WeatherCatV1.20B467,2013-05-30 22:30:00,
2013-05-30 23:35:00,52.8,50.2,29.99,NE,46,0.0,0.0,91,0.00,,,0.13,0,WeatherCatV1.20B467,2013-05-30 22:35:00,
2013-05-30 23:40:00,52.8,50.2,29.99,NNE,19,3.0,3.0,91,0.00,,,0.13,0,WeatherCatV1.20B467,2013-05-30 22:40:00,
2013-05-30 23:45:00,52.7,50.4,29.99,NW,321,0.0,3.0,92,0.00,,,0.13,0,WeatherCatV1.20B467,2013-05-30 22:45:00,
2013-05-30 23:50:00,52.7,50.4,29.99,NW,322,0.0,3.0,92,0.00,,,0.13,0,WeatherCatV1.20B467,2013-05-30 22:50:00,
2013-05-30 23:55:00,52.7,50.4,29.99,NW,322,0.0,1.0,92,0.00,,,0.13,0,WeatherCatV1.20B467,2013-05-30 22:55:00,